Time;durP1;ratioP1;P1;durP2;ratioP2;P2;SDS_P1;SDS_P2;PMS_P1;PMS_P2;Temp;Humidity;BMP_temperature;BMP_pressure;BME280_temperature;BME280_humidity;BME280_pressure;Samples;Min_cycle;Max_cycle;Signal;HPM_P1;HPM_P2
2023/01/07 00:03:57;;;;;;;23.87;10.80;;;5.00;99.90;;;2.55;100.00;100693.06;10523530;28;20143;-80
2023/01/07 00:09:02;;;;;;;20.77;9.73;;;4.90;99.90;;;2.46;100.00;100691.09;10533894;28;20146;-80
2023/01/07 00:14:08;;;;;;;23.63;10.17;;;4.80;99.90;;;2.38;100.00;100702.09;10537742;28;20146;-79
2023/01/07 00:19:14;;;;;;;22.70;11.20;;;4.70;99.90;;;2.36;100.00;100706.59;10541173;28;20528;-80
2023/01/07 00:24:17;;;;;;;19.67;10.63;;;4.70;99.90;;;2.38;100.00;100720.44;10548492;28;20143;-80
2023/01/07 00:29:20;;;;;;;20.17;10.43;;;4.70;99.90;;;2.44;100.00;100713.09;10530052;28;20057;-79
2023/01/07 00:34:24;;;;;;;23.37;10.83;;;4.70;99.90;;;2.56;100.00;100713.13;10534271;28;20059;-79
2023/01/07 00:39:26;;;;;;;24.97;11.00;;;4.80;99.90;;;2.71;100.00;100708.63;10544825;28;20060;-80
2023/01/07 00:44:30;;;;;;;20.13;10.53;;;5.00;99.90;;;2.88;100.00;100717.97;10542283;28;20083;-79
2023/01/07 00:49:33;;;;;;;24.87;10.87;;;5.10;99.90;;;3.00;100.00;100714.50;10524297;28;20060;-79
2023/01/07 00:54:36;;;;;;;17.47;10.10;;;5.20;99.90;;;3.13;100.00;100714.47;10549967;28;20057;-79
2023/01/07 00:59:39;;;;;;;27.87;13.63;;;5.40;99.90;;;3.23;100.00;100711.06;10526670;28;20070;-80
2023/01/07 01:04:42;;;;;;;31.67;13.33;;;5.50;99.90;;;3.37;100.00;100714.53;10519445;28;20066;-79
2023/01/07 01:09:45;;;;;;;22.83;11.23;;;5.60;99.90;;;3.49;100.00;100719.75;10510208;28;20057;-79
2023/01/07 01:14:48;;;;;;;26.57;11.67;;;5.70;99.90;;;3.63;100.00;100720.53;10521875;28;20491;-79
2023/01/07 01:19:51;;;;;;;20.43;9.60;;;5.80;99.90;;;3.72;100.00;100718.09;10515381;28;20056;-79
2023/01/07 01:24:54;;;;;;;15.47;8.17;;;6.00;99.90;;;3.82;100.00;100714.78;10551646;28;20505;-79
2023/01/07 01:29:58;;;;;;;23.60;11.47;;;6.10;99.90;;;3.91;100.00;100709.69;10523082;28;20117;-79
2023/01/07 01:35:01;;;;;;;19.17;8.70;;;6.20;99.90;;;4.00;100.00;100713.44;10537062;28;20062;-80
2023/01/07 01:40:06;;;;;;;20.40;10.30;;;6.30;99.90;;;4.06;100.00;100702.47;10528912;28;20155;-79
2023/01/07 01:45:10;;;;;;;21.50;10.07;;;6.30;99.90;;;4.11;100.00;100702.97;10544633;28;20056;-79
2023/01/07 01:50:49;;;;;;;16.50;8.77;;;6.30;99.90;;;4.15;100.00;100701.78;10509317;28;20060;-79
2023/01/07 01:56:02;;;;;;;16.80;8.37;;;6.40;99.90;;;4.16;100.00;100706.09;10567797;28;20063;-80
2023/01/07 02:01:05;;;;;;;21.27;10.10;;;6.40;99.90;;;4.16;100.00;100692.09;10537133;28;20063;-79
2023/01/07 02:06:19;;;;;;;13.43;8.37;;;6.40;99.90;;;4.14;100.00;100681.72;10522565;28;20064;-80
2023/01/07 02:11:56;;;;;;;21.73;10.03;;;6.40;99.90;;;4.10;100.00;100677.63;10540905;28;20063;-79
2023/01/07 02:17:16;;;;;;;10.57;6.57;;;6.30;99.90;;;3.97;100.00;100669.81;10552431;28;20555;-79
2023/01/07 02:22:56;;;;;;;16.70;9.07;;;6.30;99.90;;;3.84;100.00;100676.06;10537565;28;20460;-79
2023/01/07 02:28:40;;;;;;;19.17;9.83;;;6.10;99.90;;;3.64;100.00;100673.13;10528977;28;20159;-80
2023/01/07 02:34:07;;;;;;;18.07;7.93;;;5.90;99.90;;;3.44;100.00;100664.06;10513374;28;20052;-80
2023/01/07 02:39:12;;;;;;;20.60;10.50;;;5.80;99.90;;;3.27;100.00;100667.06;10548005;28;20552;-79
2023/01/07 02:44:40;;;;;;;29.20;11.27;;;5.60;99.90;;;3.08;100.00;100667.53;10529398;28;20473;-80
2023/01/07 02:49:46;;;;;;;20.97;9.83;;;5.40;99.90;;;2.92;100.00;100654.63;10534257;28;20055;-80
2023/01/07 02:55:18;;;;;;;19.83;10.60;;;5.30;99.90;;;2.82;100.00;100660.63;10544560;28;20060;-79
2023/01/07 03:00:46;;;;;;;29.87;12.77;;;5.20;99.90;;;2.75;100.00;100665.47;10538533;28;20068;-80
2023/01/07 03:06:23;;;;;;;18.20;9.33;;;5.10;99.90;;;2.66;100.00;100668.72;10545606;28;20121;-80
2023/01/07 03:11:38;;;;;;;21.13;10.33;;;5.00;99.90;;;2.53;100.00;100678.41;10500095;28;20139;-80
2023/01/07 03:16:52;;;;;;;17.93;10.27;;;4.90;99.90;;;2.40;100.00;100660.88;10518991;28;20143;-80
2023/01/07 03:21:58;;;;;;;20.07;9.83;;;4.80;99.90;;;2.34;100.00;100665.66;10556884;28;20135;-81
2023/01/07 03:27:05;;;;;;;24.87;11.30;;;4.70;99.90;;;2.26;100.00;100667.97;10541939;28;20468;-80
2023/01/07 03:32:26;;;;;;;20.67;9.97;;;4.60;99.90;;;2.18;100.00;100671.13;10569573;28;20056;-80
2023/01/07 03:37:31;;;;;;;23.15;11.90;;;4.50;99.90;;;2.08;100.00;100662.19;10514347;28;20113;-79
2023/01/07 03:42:40;;;;;;;26.93;11.80;;;4.40;99.90;;;2.01;100.00;100667.00;10548953;27;20098;-80
2023/01/07 03:47:48;;;;;;;28.23;13.23;;;4.30;99.90;;;1.95;100.00;100672.66;10539630;28;20114;-79
2023/01/07 03:52:51;;;;;;;29.93;12.90;;;4.30;99.90;;;1.90;100.00;100666.03;10541294;28;20105;-79
2023/01/07 03:57:55;;;;;;;23.37;11.60;;;4.20;99.90;;;1.84;100.00;100675.97;10541331;28;20141;-79
2023/01/07 04:02:58;;;;;;;21.90;12.00;;;4.10;99.90;;;1.72;100.00;100661.03;10528196;28;20061;-79
2023/01/07 04:08:01;;;;;;;23.53;11.07;;;4.00;99.90;;;1.61;100.00;100663.50;10533715;28;20801;-79
2023/01/07 04:13:04;;;;;;;26.17;12.27;;;3.90;99.90;;;1.61;100.00;100672.22;10528561;28;20152;-80
2023/01/07 04:18:07;;;;;;;31.60;12.43;;;3.90;99.90;;;1.52;100.00;100664.13;10550316;28;20083;-80
2023/01/07 04:23:10;;;;;;;24.40;11.37;;;3.90;99.90;;;1.43;100.00;100668.16;10528417;28;20056;-79
2023/01/07 04:28:14;;;;;;;21.63;11.07;;;3.80;99.90;;;1.32;100.00;100673.25;10543688;28;20060;-80
2023/01/07 04:33:17;;;;;;;20.37;10.00;;;3.70;99.90;;;1.26;100.00;100686.72;10535652;28;20060;-80
2023/01/07 04:38:20;;;;;;;27.20;10.90;;;3.60;99.90;;;1.23;100.00;100684.31;10532451;28;20064;-81
2023/01/07 04:43:23;;;;;;;26.30;10.13;;;3.60;99.90;;;1.24;100.00;100684.19;10525245;28;20070;-80
2023/01/07 04:48:26;;;;;;;21.47;11.37;;;3.60;99.90;;;1.18;100.00;100661.03;10535282;28;20056;-80
2023/01/07 04:53:29;;;;;;;24.10;10.93;;;3.60;99.90;;;1.21;100.00;100663.47;10528517;28;20056;-79
2023/01/07 04:58:32;;;;;;;29.10;12.70;;;3.60;99.90;;;1.32;100.00;100661.00;10534641;28;20056;-80
2023/01/07 05:03:35;;;;;;;27.53;12.53;;;3.60;99.90;;;1.34;100.00;100663.53;10532660;28;20082;-79
2023/01/07 05:08:37;;;;;;;22.73;10.93;;;3.60;99.90;;;1.31;100.00;100651.44;10557977;28;20060;-79
2023/01/07 05:13:40;;;;;;;31.90;12.57;;;3.60;99.90;;;1.26;100.00;100650.94;10509354;28;20426;-80
2023/01/07 05:18:44;;;;;;;27.43;13.07;;;3.60;99.90;;;1.23;100.00;100666.81;10554819;28;20917;-80
2023/01/07 05:23:47;;;;;;;30.27;11.87;;;3.60;99.90;;;1.16;100.00;100660.28;10552342;28;20167;-79
2023/01/07 05:28:50;;;;;;;20.93;10.40;;;3.50;99.90;;;1.08;100.00;100654.69;10521917;28;20098;-79
2023/01/07 05:33:53;;;;;;;18.73;9.63;;;3.40;99.90;;;0.99;100.00;100660.50;10523377;28;20057;-80
2023/01/07 05:38:55;;;;;;;28.73;10.97;;;3.40;99.90;;;0.90;100.00;100676.75;10517111;28;20060;-79
2023/01/07 05:43:58;;;;;;;29.77;11.53;;;3.30;99.90;;;0.80;100.00;100663.41;10518327;28;20067;-79
2023/01/07 05:49:02;;;;;;;25.57;12.03;;;3.20;99.90;;;0.67;100.00;100662.50;10552657;28;20474;-80
2023/01/07 05:54:06;;;;;;;23.00;10.23;;;3.10;99.90;;;0.64;100.00;100673.97;10551260;28;20063;-80
2023/01/07 05:59:09;;;;;;;29.00;12.97;;;3.00;99.90;;;0.67;100.00;100683.41;10525408;28;20087;-80
2023/01/07 06:04:12;;;;;;;28.20;14.37;;;3.00;99.90;;;0.73;100.00;100681.25;10514766;28;20056;-80
2023/01/07 06:09:15;;;;;;;31.30;14.33;;;3.10;99.90;;;0.77;100.00;100682.75;10554008;28;20544;-81
2023/01/07 06:14:17;;;;;;;33.33;13.77;;;3.10;99.90;;;0.76;100.00;100675.81;10562844;28;20147;-80
2023/01/07 06:19:21;;;;;;;35.40;14.10;;;3.10;99.90;;;0.70;100.00;100670.13;10521092;28;20078;-80
2023/01/07 06:24:24;;;;;;;33.07;13.87;;;3.10;99.90;;;0.69;100.00;100673.69;10538663;28;20155;-79
2023/01/07 06:29:28;;;;;;;39.50;15.17;;;3.10;99.90;;;0.64;100.00;100667.88;10532581;28;20052;-80
2023/01/07 06:34:31;;;;;;;45.23;15.47;;;3.00;99.90;;;0.59;100.00;100670.78;10512787;28;20083;-80
2023/01/07 06:39:34;;;;;;;27.87;13.33;;;3.00;99.90;;;0.57;100.00;100670.03;10516451;28;20056;-80
2023/01/07 06:44:37;;;;;;;32.37;13.47;;;2.90;99.90;;;0.56;100.00;100673.59;10537258;28;20072;-82
2023/01/07 06:49:40;;;;;;;26.43;11.30;;;2.90;99.90;;;0.57;100.00;100671.81;10516415;28;20067;-82
2023/01/07 06:54:43;;;;;;;55.47;21.10;;;2.90;99.90;;;0.78;100.00;100679.22;10519596;28;20059;-82
2023/01/07 06:59:48;;;;;;;33.33;15.73;;;3.00;99.90;;;1.02;100.00;100692.56;10550012;28;20064;-83
2023/01/07 07:04:51;;;;;;;34.03;17.40;;;3.10;99.90;;;1.28;100.00;100714.50;10517341;28;20067;-83
2023/01/07 07:09:54;;;;;;;49.53;21.87;;;3.30;99.90;;;1.56;100.00;100699.63;10544752;28;20064;-83
2023/01/07 07:14:57;;;;;;;35.63;17.73;;;3.50;99.90;;;1.84;100.00;100704.78;10512962;28;20056;-83
2023/01/07 07:20:00;;;;;;;42.50;21.33;;;3.70;99.90;;;2.14;100.00;100701.09;10519793;28;20064;-80
2023/01/07 07:25:04;;;;;;;43.73;20.50;;;4.00;99.90;;;2.52;100.00;100713.41;10526668;28;20064;-81
2023/01/07 07:30:08;;;;;;;34.10;16.73;;;4.30;99.90;;;2.84;100.00;100711.25;10524053;28;20092;-80
2023/01/07 07:35:12;;;;;;;46.63;20.60;;;4.60;99.90;;;3.05;100.00;100706.28;10538076;28;20056;-79
2023/01/07 07:40:15;;;;;;;38.90;19.27;;;4.80;99.90;;;3.47;100.00;100705.84;10515137;28;20068;-81
2023/01/07 07:45:18;;;;;;;33.73;18.07;;;5.10;99.90;;;3.89;100.00;100718.63;10508435;28;20060;-81
2023/01/07 07:50:21;;;;;;;34.50;16.83;;;5.40;99.90;;;4.28;100.00;100706.97;10523783;28;20146;-80
2023/01/07 07:55:25;;;;;;;27.57;14.33;;;5.70;99.90;;;4.60;100.00;100722.13;10506563;28;20076;-80
2023/01/07 08:00:28;;;;;;;33.43;15.70;;;6.00;99.90;;;5.07;100.00;100713.19;10560565;28;20082;-80
2023/01/07 08:05:31;;;;;;;31.40;15.63;;;6.30;99.90;;;5.57;100.00;100709.16;10529285;28;20528;-80
2023/01/07 08:10:34;;;;;;;22.80;12.80;;;6.60;99.90;;;5.66;100.00;100710.25;10518026;28;20061;-80
2023/01/07 08:15:37;;;;;;;27.83;14.33;;;6.80;99.90;;;5.59;100.00;100702.00;10518317;28;20061;-79
2023/01/07 08:20:40;;;;;;;18.07;11.40;;;7.10;99.90;;;5.93;100.00;100699.25;10558024;28;20181;-79
2023/01/07 08:25:43;;;;;;;26.93;15.60;;;7.40;99.90;;;6.39;100.00;100693.66;10517933;28;20066;-79
2023/01/07 08:30:47;;;;;;;24.43;13.97;;;7.80;99.90;;;6.88;100.00;100681.56;10539054;27;20121;-80
2023/01/07 08:35:50;;;;;;;27.80;15.77;;;8.30;99.90;;;7.18;100.00;100672.75;10523023;28;20129;-79
2023/01/07 08:40:53;;;;;;;23.43;13.37;;;8.60;99.90;;;7.83;100.00;100672.34;10528278;28;20114;-80
2023/01/07 08:45:56;;;;;;;24.53;13.83;;;9.20;99.90;;;8.54;100.00;100673.69;10527018;28;20524;-80
2023/01/07 08:50:59;;;;;;;26.20;14.70;;;10.00;99.90;;;8.96;100.00;100659.19;10576700;28;20064;-80
2023/01/07 08:56:02;;;;;;;23.60;14.23;;;10.60;99.90;;;9.20;99.24;100659.50;10525844;28;20064;-79
2023/01/07 09:01:06;;;;;;;21.20;13.60;;;10.90;99.90;;;9.27;96.25;100676.47;10507464;28;20068;-79
2023/01/07 09:06:10;;;;;;;21.20;13.00;;;11.10;99.90;;;9.01;94.23;100683.47;10532369;28;20056;-80
2023/01/07 09:11:14;;;;;;;20.10;13.10;;;11.00;99.90;;;8.44;91.96;100680.81;10521939;28;20061;-80
2023/01/07 09:16:17;;;;;;;18.77;11.00;;;10.60;99.90;;;7.97;91.15;100680.69;10522510;28;20064;-80
2023/01/07 09:21:20;;;;;;;17.80;10.87;;;10.20;99.90;;;8.03;91.77;100679.28;10510573;28;20502;-80
2023/01/07 09:26:23;;;;;;;16.63;9.97;;;10.20;99.90;;;8.50;91.43;100682.06;10493517;28;20060;-79
2023/01/07 09:31:26;;;;;;;15.67;10.27;;;10.70;99.90;;;9.16;89.56;100667.88;10551788;28;20421;-80
2023/01/07 09:36:29;;;;;;;21.93;12.87;;;11.20;99.90;;;9.51;86.63;100667.97;10538325;28;20147;-81
2023/01/07 09:41:57;;;;;;;20.93;10.03;;;11.70;99.90;;;9.45;85.00;100665.09;10541216;28;20059;-81
2023/01/07 09:47:02;;;;;;;17.70;10.37;;;11.70;99.90;;;8.95;83.52;100661.03;10511546;28;20086;-80
2023/01/07 09:52:21;;;;;;;20.20;11.63;;;11.20;99.90;;;8.46;83.95;100651.56;10522174;28;20051;-80
2023/01/07 09:57:26;;;;;;;17.73;10.00;;;10.70;99.90;;;8.04;84.32;100643.94;10538201;28;20135;-80
2023/01/07 10:03:15;;;;;;;18.70;10.43;;;10.20;99.90;;;7.72;85.40;100644.19;10587608;28;20078;-80
2023/01/07 10:08:54;;;;;;;18.97;10.10;;;9.90;99.90;;;7.50;86.08;100646.16;10559054;28;20428;-80
2023/01/07 10:14:21;;;;;;;20.15;11.90;;;9.60;99.90;;;7.37;87.42;100639.41;10529475;28;20063;-80
2023/01/07 10:19:32;;;;;;;16.63;9.40;;;9.50;99.90;;;7.30;88.41;100635.66;10541371;28;20063;-80
2023/01/07 10:24:42;;;;;;;16.90;8.90;;;9.40;99.90;;;7.23;89.32;100636.19;10529383;28;20118;-80
2023/01/07 10:29:57;;;;;;;15.87;9.17;;;9.30;99.90;;;7.23;89.86;100630.06;10509927;28;20484;-82
2023/01/07 10:35:02;;;;;;;17.23;9.37;;;9.30;99.90;;;7.23;90.90;100625.63;10556853;28;20062;-81
2023/01/07 10:40:11;;;;;;;11.87;8.00;;;9.30;99.90;;;7.30;91.51;100611.88;10549928;28;20059;-81
2023/01/07 10:45:42;;;;;;;15.67;9.17;;;9.30;99.90;;;7.38;91.34;100612.03;10537082;28;20056;-82
2023/01/07 10:51:06;;;;;;;14.17;7.83;;;9.40;99.90;;;7.46;92.23;100610.34;10534675;28;20096;-82
2023/01/07 10:56:31;;;;;;;16.17;8.80;;;9.50;99.90;;;7.77;92.91;100603.13;10555958;28;20063;-82
2023/01/07 11:01:42;;;;;;;11.77;7.07;;;9.80;99.90;;;8.62;93.30;100592.66;10531721;28;20532;-81
2023/01/07 11:07:06;;;;;;;14.37;7.67;;;10.70;99.90;;;9.02;91.22;100581.75;10516229;28;20075;-80
2023/01/07 11:12:57;;;;;;;14.30;8.70;;;11.10;99.90;;;9.34;89.59;100573.28;10530216;28;20057;-81
2023/01/07 11:18:24;;;;;;;17.03;9.23;;;11.40;99.90;;;9.41;87.58;100576.16;10387882;28;20092;-81
2023/01/07 11:23:39;;;;;;;15.50;8.73;;;11.40;99.90;;;9.31;86.14;100560.34;10496747;28;20068;-80
2023/01/07 11:28:55;;;;;;;13.73;8.13;;;11.40;99.90;;;9.19;85.75;100562.38;10515235;28;20067;-81
2023/01/07 11:33:58;;;;;;;14.90;7.70;;;11.20;99.90;;;9.09;85.95;100546.53;10497643;28;20056;-81
2023/01/07 11:39:18;;;;;;;12.83;7.60;;;11.10;99.90;;;9.03;85.86;100541.00;10523106;28;20064;-81
2023/01/07 11:44:22;;;;;;;13.60;8.10;;;11.10;99.90;;;8.97;85.95;100542.41;10546109;28;20065;-81
2023/01/07 11:49:27;;;;;;;13.87;7.20;;;11.00;99.90;;;8.98;86.19;100533.47;10497389;28;20063;-80
2023/01/07 11:54:31;;;;;;;12.83;7.50;;;11.00;99.90;;;8.96;86.02;100530.16;10513507;28;20056;-81
2023/01/07 11:59:34;;;;;;;14.50;8.40;;;11.00;99.90;;;8.99;86.34;100524.53;10529568;28;20056;-81
2023/01/07 12:04:39;;;;;;;15.13;9.40;;;11.00;99.90;;;9.02;86.40;100518.94;10537682;28;20064;-81
2023/01/07 12:09:44;;;;;;;17.97;10.00;;;11.00;99.90;;;9.03;86.11;100519.78;10570191;28;20056;-81
2023/01/07 12:14:48;;;;;;;15.60;8.43;;;11.10;99.90;;;9.04;85.73;100506.38;10522558;28;20056;-81
2023/01/07 12:20:51;;;;;;;16.77;9.17;;;11.10;99.90;;;9.13;85.72;100506.47;10538183;28;20059;-80
2023/01/07 12:26:19;;;;;;;13.70;8.18;;;11.10;99.90;;;9.15;85.73;100497.38;10490020;28;20517;-80
2023/01/07 12:32:07;;;;;;;14.53;8.20;;;11.20;99.90;;;9.21;85.81;100488.81;10556969;28;20060;-80
2023/01/07 12:37:32;;;;;;;13.30;7.87;;;11.20;99.90;;;9.24;85.61;100491.16;10568904;28;20056;-80
2023/01/07 12:42:49;;;;;;;14.67;8.23;;;11.30;99.90;;;9.26;85.75;100493.66;10554409;28;20148;-80
2023/01/07 12:48:03;;;;;;;16.53;8.73;;;11.30;99.90;;;9.26;85.69;100483.88;10556498;28;20078;-80
2023/01/07 12:53:30;;;;;;;12.53;7.87;;;11.30;99.90;;;9.26;85.83;100478.59;10506929;28;20095;-80
2023/01/07 12:58:43;;;;;;;13.83;8.90;;;11.30;99.90;;;9.31;86.11;100480.78;10496393;28;20090;-81
2023/01/07 13:04:38;;;;;;;13.70;8.07;;;11.30;99.90;;;9.31;85.93;100476.31;10511488;28;20139;-81
2023/01/07 13:09:55;;;;;;;17.87;10.27;;;11.40;99.90;;;9.30;86.49;100457.91;10538827;28;20056;-81
2023/01/07 13:15:07;;;;;;;13.97;8.50;;;11.40;99.90;;;9.34;86.50;100460.06;10539510;28;20092;-82
2023/01/07 13:20:16;;;;;;;13.60;7.47;;;11.40;99.90;;;9.34;86.43;100470.69;10518629;28;20076;-82
2023/01/07 13:25:32;;;;;;;12.10;6.53;;;11.40;99.90;;;9.34;86.34;100465.38;10526603;28;20056;-82
2023/01/07 13:31:03;;;;;;;12.57;7.60;;;11.40;99.90;;;9.34;86.31;100459.25;10551606;28;20433;-82
2023/01/07 13:36:13;;;;;;;13.97;7.37;;;11.40;99.90;;;9.36;86.27;100452.81;10568224;28;20135;-82
2023/01/07 13:41:36;;;;;;;12.80;7.07;;;11.40;99.90;;;9.33;85.85;100445.16;10587355;28;20158;-82
2023/01/07 13:46:43;;;;;;;10.47;5.47;;;11.40;99.90;;;9.33;85.84;100445.16;10528450;28;20110;-82
2023/01/07 13:51:46;;;;;;;11.07;6.27;;;11.40;99.90;;;9.28;85.93;100449.25;10509632;28;20518;-82
2023/01/07 13:56:49;;;;;;;11.83;5.93;;;11.30;99.90;;;9.25;86.11;100449.56;10497209;28;20063;-81
2023/01/07 14:02:18;;;;;;;11.83;6.17;;;11.30;99.90;;;9.20;85.90;100460.63;10516680;28;20066;-82
2023/01/07 14:07:22;;;;;;;11.43;6.37;;;11.30;99.90;;;9.13;85.97;100451.63;10524896;28;20056;-82
2023/01/07 14:12:50;;;;;;;11.93;5.87;;;11.30;99.90;;;9.07;85.47;100461.00;10521849;28;20095;-81
2023/01/07 14:18:36;;;;;;;13.30;7.07;;;11.20;99.90;;;8.94;85.49;100478.28;10536928;28;20090;-81
2023/01/07 14:24:01;;;;;;;13.30;6.63;;;11.10;99.90;;;8.80;85.93;100469.00;10540860;28;20144;-80
2023/01/07 14:29:47;;;;;;;16.80;8.50;;;10.90;99.90;;;8.65;86.31;100474.00;10532430;27;20064;-81
2023/01/07 14:35:09;;;;;;;13.17;7.00;;;10.80;99.90;;;8.46;86.50;100474.13;10511793;28;20060;-81
2023/01/07 14:40:25;;;;;;;18.17;10.57;;;10.60;99.90;;;8.24;86.65;100470.84;10570634;28;20053;-82
2023/01/07 14:45:40;;;;;;;15.67;8.93;;;10.40;99.90;;;8.00;87.09;100475.81;10539051;28;20520;-81
2023/01/07 14:51:04;;;;;;;15.63;9.57;;;10.20;99.90;;;7.73;87.57;100465.97;10564139;28;20052;-82
2023/01/07 14:56:30;;;;;;;31.27;16.47;;;10.00;99.90;;;7.50;87.74;100476.06;10530374;28;20102;-81
2023/01/07 15:02:13;;;;;;;27.50;13.13;;;9.70;99.90;;;7.24;88.28;100471.34;10531369;28;20061;-82
2023/01/07 15:07:23;;;;;;;45.67;24.97;;;9.50;99.90;;;7.11;89.21;100475.25;10533661;28;20442;-82
2023/01/07 15:17:55;;;;;;;19.40;9.73;;;9.30;99.90;;;7.16;90.96;100473.84;10543691;28;20059;-80
2023/01/07 15:23:42;;;;;;;19.30;10.57;;;9.30;99.90;;;7.27;91.60;100479.97;10518137;28;20548;-81
2023/01/07 15:29:52;;;;;;;19.43;10.23;;;9.40;99.90;;;7.30;91.81;100477.88;10506509;28;20060;-81
2023/01/07 15:34:56;;;;;;;19.60;10.43;;;9.40;99.90;;;7.32;91.95;100486.53;10552561;28;20102;-82
2023/01/07 15:40:00;;;;;;;17.90;10.93;;;9.40;99.90;;;7.29;92.09;100478.03;10530667;28;20060;-82
2023/01/07 15:45:04;;;;;;;18.97;11.03;;;9.50;99.90;;;7.33;92.23;100480.25;10521900;28;20056;-82
2023/01/07 15:50:29;;;;;;;16.67;9.00;;;9.50;99.90;;;7.33;92.53;100482.91;10510846;28;20060;-81
2023/01/07 15:55:39;;;;;;;17.90;9.57;;;9.50;99.90;;;7.37;92.77;100478.16;10512490;28;20636;-81
2023/01/07 16:00:43;;;;;;;17.05;10.52;;;9.50;99.90;;;7.35;92.79;100478.28;10554654;28;20067;-81
2023/01/07 16:05:47;;;;;;;21.13;11.70;;;9.50;99.90;;;7.34;93.04;100483.72;10509643;28;20060;-82
2023/01/07 16:11:20;;;;;;;22.30;13.00;;;9.50;99.90;;;7.30;93.42;100493.72;10542508;28;20394;-82
2023/01/07 16:16:24;;;;;;;23.67;12.53;;;9.50;99.90;;;7.24;93.44;100481.91;10559076;28;20067;-81
2023/01/07 16:21:38;;;;;;;25.20;12.13;;;9.40;99.90;;;7.14;93.57;100477.63;10535218;28;20064;-81
2023/01/07 16:26:55;;;;;;;30.20;15.83;;;9.40;99.90;;;7.04;93.78;100488.16;10545121;28;20072;-80
2023/01/07 16:32:00;;;;;;;39.27;19.30;;;9.30;99.90;;;6.92;93.83;100498.03;10525421;28;20051;-80
2023/01/07 16:37:10;;;;;;;46.60;22.87;;;9.20;99.90;;;6.63;93.78;100497.97;10506664;28;20056;-80
2023/01/07 16:42:18;;;;;;;38.83;19.77;;;9.00;99.90;;;6.34;94.17;100519.00;10528219;28;20056;-80
2023/01/07 16:47:32;;;;;;;36.80;19.10;;;8.60;99.90;;;6.12;94.83;100519.19;10544381;28;20048;-80
2023/01/07 16:52:35;;;;;;;33.93;16.50;;;8.40;99.90;;;5.86;95.35;100519.53;10517093;28;20060;-80
2023/01/07 16:57:41;;;;;;;32.40;15.67;;;8.10;99.90;;;5.57;95.83;100516.72;10508906;28;20052;-81
2023/01/07 17:02:59;;;;;;;25.63;13.63;;;7.80;99.90;;;5.29;96.33;100514.72;10559826;28;20052;-79
2023/01/07 17:08:17;;;;;;;33.83;14.37;;;7.60;99.90;;;5.19;97.49;100532.22;10546021;28;20052;-81
2023/01/07 17:13:23;;;;;;;31.90;15.13;;;7.40;99.90;;;5.04;97.90;100540.44;10521752;28;20115;-82
2023/01/07 17:18:28;;;;;;;33.47;16.57;;;7.30;99.90;;;4.95;98.51;100541.16;10538093;28;20539;-82
2023/01/07 17:23:38;;;;;;;29.57;13.63;;;7.20;99.90;;;4.88;99.08;100544.41;10562267;28;20410;-82
2023/01/07 17:28:53;;;;;;;39.10;15.90;;;7.10;99.90;;;4.79;99.48;100530.16;10561585;28;20084;-81
2023/01/07 17:33:57;;;;;;;41.77;17.77;;;7.00;99.90;;;4.71;100.00;100529.94;10553811;28;20145;-80
2023/01/07 17:39:00;;;;;;;36.93;15.50;;;6.90;99.90;;;4.69;100.00;100535.34;10527518;28;20059;-80
2023/01/07 17:44:05;;;;;;;33.73;15.40;;;6.90;99.90;;;4.68;100.00;100551.25;10497314;28;20079;-80
2023/01/07 17:49:10;;;;;;;40.60;17.57;;;6.80;99.90;;;4.68;100.00;100540.72;10541303;28;20198;-82
2023/01/07 17:54:24;;;;;;;42.80;17.77;;;6.90;99.90;;;4.69;100.00;100542.41;10516197;28;20135;-82
2023/01/07 17:59:29;;;;;;;39.47;17.47;;;6.90;99.90;;;4.70;100.00;100549.34;10539608;28;20064;-80
2023/01/07 18:04:32;;;;;;;41.17;18.37;;;6.90;99.90;;;4.70;100.00;100557.25;10521212;28;20134;-82
2023/01/07 18:09:35;;;;;;;39.83;19.17;;;6.90;99.90;;;4.65;100.00;100546.22;10530103;28;20118;-82
2023/01/07 18:14:38;;;;;;;38.93;18.23;;;6.90;99.90;;;4.68;100.00;100546.84;10509934;28;20148;-82
2023/01/07 18:19:42;;;;;;;39.33;17.57;;;6.90;99.90;;;4.71;100.00;100549.22;10500265;28;20048;-82
2023/01/07 18:24:47;;;;;;;37.83;17.27;;;6.90;99.90;;;4.67;100.00;100544.31;10532944;28;21419;-82
2023/01/07 18:29:50;;;;;;;29.97;14.37;;;6.90;99.90;;;4.67;100.00;100545.13;10540645;28;20061;-80
2023/01/07 18:34:53;;;;;;;30.53;13.53;;;6.90;99.90;;;4.66;100.00;100551.38;10544484;28;20052;-81
2023/01/07 18:40:00;;;;;;;31.27;13.20;;;6.90;99.90;;;4.69;100.00;100552.94;10527178;28;20063;-83
2023/01/07 18:45:06;;;;;;;32.20;14.03;;;6.90;99.90;;;4.65;100.00;100557.59;10542873;28;20066;-81
2023/01/07 18:50:09;;;;;;;30.87;13.43;;;6.80;99.90;;;4.62;100.00;100559.63;10534911;28;20457;-80
2023/01/07 18:55:12;;;;;;;35.87;16.67;;;6.80;99.90;;;4.61;100.00;100537.72;10506103;28;20506;-83
2023/01/07 19:00:18;;;;;;;32.67;14.67;;;6.80;99.90;;;4.59;100.00;100544.09;10530603;28;20060;-83
2023/01/07 19:05:21;;;;;;;35.53;15.33;;;6.80;99.90;;;4.62;100.00;100541.19;10512425;28;20060;-83
2023/01/07 19:10:25;;;;;;;41.53;18.10;;;6.80;99.90;;;4.62;100.00;100541.19;10536865;28;20052;-84
2023/01/07 19:15:28;;;;;;;36.60;15.47;;;6.80;99.90;;;4.60;100.00;100543.13;10518142;28;20170;-82
2023/01/07 19:20:31;;;;;;;42.03;16.47;;;6.80;99.90;;;4.59;100.00;100531.75;10541410;28;20084;-81
2023/01/07 19:25:34;;;;;;;41.30;16.70;;;6.80;99.90;;;4.65;100.00;100535.72;10556665;28;20520;-82
2023/01/07 19:30:37;;;;;;;44.50;18.10;;;6.80;99.90;;;4.62;100.00;100541.19;10543510;28;20067;-82
2023/01/07 19:35:40;;;;;;;40.93;16.93;;;6.80;99.90;;;4.59;100.00;100520.41;10537525;28;20066;-82
2023/01/07 19:40:44;;;;;;;39.37;16.03;;;6.80;99.90;;;4.64;100.00;100536.66;10513585;28;20056;-81
2023/01/07 19:45:55;;;;;;;37.60;15.27;;;6.80;99.90;;;4.64;100.00;100539.31;10536270;28;20105;-82
2023/01/07 19:51:00;;;;;;;36.20;16.90;;;6.80;99.90;;;4.66;100.00;100527.69;10561906;28;20401;-82
2023/01/07 19:56:09;;;;;;;39.00;16.27;;;6.80;99.90;;;4.66;100.00;100530.31;10535838;28;20057;-82
2023/01/07 20:01:16;;;;;;;36.00;14.27;;;6.80;99.90;;;4.68;100.00;100524.91;10513411;28;20056;-83
2023/01/07 20:06:24;;;;;;;33.37;15.47;;;6.90;99.90;;;4.69;100.00;100522.19;10529360;28;20083;-82
2023/01/07 20:11:27;;;;;;;35.27;16.70;;;6.90;99.90;;;4.68;100.00;100524.91;10534308;28;20082;-83
2023/01/07 20:16:30;;;;;;;36.87;15.10;;;6.90;99.90;;;4.68;100.00;100514.38;10515271;28;20057;-83
2023/01/07 20:21:33;;;;;;;39.27;15.43;;;6.90;99.90;;;4.70;100.00;100512.50;10556801;28;20060;-83
2023/01/07 20:26:37;;;;;;;41.60;16.23;;;6.90;99.90;;;4.68;100.00;100506.50;10538909;28;20159;-83
2023/01/07 20:31:40;;;;;;;40.40;16.90;;;6.90;99.90;;;4.68;100.00;100515.25;10523704;28;20066;-82
2023/01/07 20:36:42;;;;;;;41.97;17.23;;;6.80;99.90;;;4.67;100.00;100505.66;10530860;28;20068;-83
2023/01/07 20:41:45;;;;;;;49.67;18.77;;;6.90;99.90;;;4.69;100.00;100502.91;10528820;28;20064;-83
2023/01/07 20:46:49;;;;;;;43.07;17.60;;;6.80;99.90;;;4.69;100.00;100508.19;10544356;28;20060;-82
2023/01/07 20:51:52;;;;;;;42.27;16.30;;;6.90;99.90;;;4.72;100.00;100507.94;10527852;28;20139;-82
2023/01/07 20:56:55;;;;;;;44.60;16.63;;;6.90;99.90;;;4.74;100.00;100495.50;10513582;28;20056;-82
2023/01/07 21:01:59;;;;;;;47.10;16.03;;;6.90;99.90;;;4.72;100.00;100484.22;10526080;28;20155;-83
2023/01/07 21:07:02;;;;;;;44.87;16.13;;;6.90;99.90;;;4.75;100.00;100489.28;10510874;28;20143;-82
2023/01/07 21:12:06;;;;;;;46.67;17.97;;;6.90;99.90;;;4.75;100.00;100489.28;10526656;28;20143;-81
2023/01/07 21:17:09;;;;;;;49.80;16.17;;;6.90;99.90;;;4.76;100.00;100475.97;10537341;28;20057;-82